sensor_id;sensor_type;location;lat;lon;timestamp;pressure;altitude;pressure_sealevel;temperature
11240;BMP180;5677;48.488;13.436;2022-07-06T00:00:57;98080.00;;;23.00
11240;BMP180;5677;48.488;13.436;2022-07-06T00:03:24;98082.00;;;23.00
11240;BMP180;5677;48.488;13.436;2022-07-06T00:05:51;98080.00;;;23.00
11240;BMP180;5677;48.488;13.436;2022-07-06T00:08:18;98075.00;;;23.00
11240;BMP180;5677;48.488;13.436;2022-07-06T00:10:45;98080.00;;;23.00
11240;BMP180;5677;48.488;13.436;2022-07-06T00:13:13;98082.00;;;22.90
11240;BMP180;5677;48.488;13.436;2022-07-06T00:15:40;98090.00;;;22.90
11240;BMP180;5677;48.488;13.436;2022-07-06T00:18:07;98085.00;;;22.90
11240;BMP180;5677;48.488;13.436;2022-07-06T00:20:34;98090.00;;;22.90
11240;BMP180;5677;48.488;13.436;2022-07-06T00:23:01;98084.00;;;22.90
11240;BMP180;5677;48.488;13.436;2022-07-06T00:25:28;98092.00;;;22.90
11240;BMP180;5677;48.488;13.436;2022-07-06T00:27:55;98092.00;;;22.90
11240;BMP180;5677;48.488;13.436;2022-07-06T00:30:23;98095.00;;;22.90
11240;BMP180;5677;48.488;13.436;2022-07-06T00:32:50;98093.00;;;22.90
11240;BMP180;5677;48.488;13.436;2022-07-06T00:35:17;98093.00;;;22.90
11240;BMP180;5677;48.488;13.436;2022-07-06T00:37:44;98094.00;;;22.90
11240;BMP180;5677;48.488;13.436;2022-07-06T00:40:12;98091.00;;;22.90
11240;BMP180;5677;48.488;13.436;2022-07-06T00:42:40;98094.00;;;22.90
11240;BMP180;5677;48.488;13.436;2022-07-06T00:45:09;98090.00;;;22.90
11240;BMP180;5677;48.488;13.436;2022-07-06T00:47:38;98090.00;;;22.90
11240;BMP180;5677;48.488;13.436;2022-07-06T00:50:07;98086.00;;;22.90
11240;BMP180;5677;48.488;13.436;2022-07-06T00:52:40;98089.00;;;22.90
11240;BMP180;5677;48.488;13.436;2022-07-06T00:55:08;98085.00;;;22.90
11240;BMP180;5677;48.488;13.436;2022-07-06T00:57:36;98077.00;;;22.90
11240;BMP180;5677;48.488;13.436;2022-07-06T01:00:04;98080.00;;;22.90
11240;BMP180;5677;48.488;13.436;2022-07-06T01:02:31;98075.00;;;22.90
11240;BMP180;5677;48.488;13.436;2022-07-06T01:05:00;98067.00;;;22.90
11240;BMP180;5677;48.488;13.436;2022-07-06T01:07:28;98070.00;;;22.90
11240;BMP180;5677;48.488;13.436;2022-07-06T01:09:55;98065.00;;;22.90
11240;BMP180;5677;48.488;13.436;2022-07-06T01:12:23;98079.00;;;22.90
11240;BMP180;5677;48.488;13.436;2022-07-06T01:14:50;98079.00;;;22.90
11240;BMP180;5677;48.488;13.436;2022-07-06T01:17:18;98075.00;;;22.80
11240;BMP180;5677;48.488;13.436;2022-07-06T01:19:45;98073.00;;;22.80
11240;BMP180;5677;48.488;13.436;2022-07-06T01:22:13;98075.00;;;22.80
11240;BMP180;5677;48.488;13.436;2022-07-06T01:24:41;98078.00;;;22.80
11240;BMP180;5677;48.488;13.436;2022-07-06T01:27:08;98080.00;;;22.80
11240;BMP180;5677;48.488;13.436;2022-07-06T01:29:35;98084.00;;;22.80
11240;BMP180;5677;48.488;13.436;2022-07-06T01:32:03;98073.00;;;22.80
11240;BMP180;5677;48.488;13.436;2022-07-06T01:34:30;98078.00;;;22.80
11240;BMP180;5677;48.488;13.436;2022-07-06T01:36:57;98074.00;;;22.80
11240;BMP180;5677;48.488;13.436;2022-07-06T01:39:25;98074.00;;;22.80
11240;BMP180;5677;48.488;13.436;2022-07-06T01:41:52;98069.00;;;22.80
11240;BMP180;5677;48.488;13.436;2022-07-06T01:44:19;98072.00;;;22.80
11240;BMP180;5677;48.488;13.436;2022-07-06T01:46:46;98068.00;;;22.80
11240;BMP180;5677;48.488;13.436;2022-07-06T01:49:13;98074.00;;;22.80
11240;BMP180;5677;48.488;13.436;2022-07-06T01:51:40;98073.00;;;22.80
11240;BMP180;5677;48.488;13.436;2022-07-06T01:54:06;98068.00;;;22.80
11240;BMP180;5677;48.488;13.436;2022-07-06T01:56:35;98074.00;;;22.80
11240;BMP180;5677;48.488;13.436;2022-07-06T01:59:02;98081.00;;;22.80
11240;BMP180;5677;48.488;13.436;2022-07-06T02:01:28;98078.00;;;22.80
11240;BMP180;5677;48.488;13.436;2022-07-06T02:03:55;98084.00;;;22.80
11240;BMP180;5677;48.488;13.436;2022-07-06T02:06:22;98083.00;;;22.80
11240;BMP180;5677;48.488;13.436;2022-07-06T02:08:49;98080.00;;;22.80
11240;BMP180;5677;48.488;13.436;2022-07-06T02:11:17;98086.00;;;22.80
11240;BMP180;5677;48.488;13.436;2022-07-06T02:13:45;98082.00;;;22.70
11240;BMP180;5677;48.488;13.436;2022-07-06T02:16:12;98081.00;;;22.70
11240;BMP180;5677;48.488;13.436;2022-07-06T02:18:39;98076.00;;;22.70
11240;BMP180;5677;48.488;13.436;2022-07-06T02:21:06;98080.00;;;22.70
11240;BMP180;5677;48.488;13.436;2022-07-06T02:23:33;98088.00;;;22.70
11240;BMP180;5677;48.488;13.436;2022-07-06T02:26:00;98093.00;;;22.70
11240;BMP180;5677;48.488;13.436;2022-07-06T02:28:27;98096.00;;;22.70
11240;BMP180;5677;48.488;13.436;2022-07-06T02:30:56;98094.00;;;22.70
11240;BMP180;5677;48.488;13.436;2022-07-06T02:33:23;98098.00;;;22.70
11240;BMP180;5677;48.488;13.436;2022-07-06T02:35:50;98102.00;;;22.70
11240;BMP180;5677;48.488;13.436;2022-07-06T02:38:17;98114.00;;;22.70
11240;BMP180;5677;48.488;13.436;2022-07-06T02:40:44;98116.00;;;22.70
11240;BMP180;5677;48.488;13.436;2022-07-06T02:43:11;98118.00;;;22.70
11240;BMP180;5677;48.488;13.436;2022-07-06T02:45:38;98117.00;;;22.70
11240;BMP180;5677;48.488;13.436;2022-07-06T02:48:06;98114.00;;;22.70
11240;BMP180;5677;48.488;13.436;2022-07-06T02:50:33;98123.00;;;22.70
11240;BMP180;5677;48.488;13.436;2022-07-06T02:53:00;98120.00;;;22.70
11240;BMP180;5677;48.488;13.436;2022-07-06T02:55:27;98108.00;;;22.70
11240;BMP180;5677;48.488;13.436;2022-07-06T02:57:55;98118.00;;;22.70
11240;BMP180;5677;48.488;13.436;2022-07-06T03:00:22;98114.00;;;22.70
11240;BMP180;5677;48.488;13.436;2022-07-06T03:02:49;98120.00;;;22.70
11240;BMP180;5677;48.488;13.436;2022-07-06T03:05:17;98117.00;;;22.70
11240;BMP180;5677;48.488;13.436;2022-07-06T03:07:44;98125.00;;;22.70
11240;BMP180;5677;48.488;13.436;2022-07-06T03:10:11;98124.00;;;22.70
11240;BMP180;5677;48.488;13.436;2022-07-06T03:12:38;98125.00;;;22.60
11240;BMP180;5677;48.488;13.436;2022-07-06T03:15:06;98126.00;;;22.60
11240;BMP180;5677;48.488;13.436;2022-07-06T03:17:35;98128.00;;;22.70
11240;BMP180;5677;48.488;13.436;2022-07-06T03:20:03;98131.00;;;22.60
11240;BMP180;5677;48.488;13.436;2022-07-06T03:22:31;98126.00;;;22.60
11240;BMP180;5677;48.488;13.436;2022-07-06T03:24:58;98125.00;;;22.60
11240;BMP180;5677;48.488;13.436;2022-07-06T03:27:25;98130.00;;;22.60
11240;BMP180;5677;48.488;13.436;2022-07-06T03:29:52;98133.00;;;22.60
11240;BMP180;5677;48.488;13.436;2022-07-06T03:32:19;98128.00;;;22.60
11240;BMP180;5677;48.488;13.436;2022-07-06T03:34:46;98132.00;;;22.60
11240;BMP180;5677;48.488;13.436;2022-07-06T03:37:13;98125.00;;;22.60
11240;BMP180;5677;48.488;13.436;2022-07-06T03:39:41;98124.00;;;22.60
11240;BMP180;5677;48.488;13.436;2022-07-06T03:42:08;98124.00;;;22.60
11240;BMP180;5677;48.488;13.436;2022-07-06T03:44:35;98121.00;;;22.60
11240;BMP180;5677;48.488;13.436;2022-07-06T03:47:02;98124.00;;;22.60
11240;BMP180;5677;48.488;13.436;2022-07-06T03:49:29;98118.00;;;22.60
11240;BMP180;5677;48.488;13.436;2022-07-06T03:51:56;98112.00;;;22.60
11240;BMP180;5677;48.488;13.436;2022-07-06T03:54:23;98114.00;;;22.60
11240;BMP180;5677;48.488;13.436;2022-07-06T03:56:51;98118.00;;;22.60
11240;BMP180;5677;48.488;13.436;2022-07-06T03:59:18;98119.00;;;22.60
11240;BMP180;5677;48.488;13.436;2022-07-06T04:01:45;98117.00;;;22.60
11240;BMP180;5677;48.488;13.436;2022-07-06T04:04:12;98123.00;;;22.60
11240;BMP180;5677;48.488;13.436;2022-07-06T04:06:38;98126.00;;;22.60
11240;BMP180;5677;48.488;13.436;2022-07-06T04:09:06;98123.00;;;22.60
11240;BMP180;5677;48.488;13.436;2022-07-06T04:11:33;98130.00;;;22.60
11240;BMP180;5677;48.488;13.436;2022-07-06T04:14:01;98132.00;;;22.60
11240;BMP180;5677;48.488;13.436;2022-07-06T04:16:28;98140.00;;;22.60
11240;BMP180;5677;48.488;13.436;2022-07-06T04:18:55;98142.00;;;22.60
11240;BMP180;5677;48.488;13.436;2022-07-06T04:21:21;98141.00;;;22.60
11240;BMP180;5677;48.488;13.436;2022-07-06T04:23:48;98148.00;;;22.50
11240;BMP180;5677;48.488;13.436;2022-07-06T04:26:15;98147.00;;;22.50
11240;BMP180;5677;48.488;13.436;2022-07-06T04:28:42;98144.00;;;22.50
11240;BMP180;5677;48.488;13.436;2022-07-06T04:31:11;98149.00;;;22.50
11240;BMP180;5677;48.488;13.436;2022-07-06T04:33:40;98145.00;;;22.50
11240;BMP180;5677;48.488;13.436;2022-07-06T04:36:07;98154.00;;;22.50
11240;BMP180;5677;48.488;13.436;2022-07-06T04:38:34;98151.00;;;22.50
11240;BMP180;5677;48.488;13.436;2022-07-06T04:41:01;98156.00;;;22.60
11240;BMP180;5677;48.488;13.436;2022-07-06T04:43:29;98156.00;;;22.50
11240;BMP180;5677;48.488;13.436;2022-07-06T04:45:56;98159.00;;;22.50
11240;BMP180;5677;48.488;13.436;2022-07-06T04:48:24;98158.00;;;22.50
11240;BMP180;5677;48.488;13.436;2022-07-06T04:50:51;98152.00;;;22.50
11240;BMP180;5677;48.488;13.436;2022-07-06T04:53:18;98156.00;;;22.50
11240;BMP180;5677;48.488;13.436;2022-07-06T04:55:45;98155.00;;;22.50
11240;BMP180;5677;48.488;13.436;2022-07-06T04:58:12;98149.00;;;22.50
11240;BMP180;5677;48.488;13.436;2022-07-06T05:00:38;98160.00;;;22.50
11240;BMP180;5677;48.488;13.436;2022-07-06T05:03:05;98167.00;;;22.50
11240;BMP180;5677;48.488;13.436;2022-07-06T05:05:34;98165.00;;;22.50
11240;BMP180;5677;48.488;13.436;2022-07-06T05:08:00;98179.00;;;22.50
11240;BMP180;5677;48.488;13.436;2022-07-06T05:10:27;98175.00;;;22.50
11240;BMP180;5677;48.488;13.436;2022-07-06T05:12:54;98177.00;;;22.50
11240;BMP180;5677;48.488;13.436;2022-07-06T05:15:22;98172.00;;;22.50
11240;BMP180;5677;48.488;13.436;2022-07-06T05:17:49;98171.00;;;22.50
11240;BMP180;5677;48.488;13.436;2022-07-06T05:20:16;98173.00;;;22.50
11240;BMP180;5677;48.488;13.436;2022-07-06T05:22:44;98175.00;;;22.60
11240;BMP180;5677;48.488;13.436;2022-07-06T05:25:11;98181.00;;;22.60
11240;BMP180;5677;48.488;13.436;2022-07-06T05:27:38;98184.00;;;22.60
11240;BMP180;5677;48.488;13.436;2022-07-06T05:30:06;98180.00;;;22.60
11240;BMP180;5677;48.488;13.436;2022-07-06T05:32:33;98183.00;;;22.60
11240;BMP180;5677;48.488;13.436;2022-07-06T05:35:00;98177.00;;;22.60
11240;BMP180;5677;48.488;13.436;2022-07-06T05:37:27;98193.00;;;22.60
11240;BMP180;5677;48.488;13.436;2022-07-06T05:39:55;98189.00;;;22.60
11240;BMP180;5677;48.488;13.436;2022-07-06T05:42:22;98191.00;;;22.60
11240;BMP180;5677;48.488;13.436;2022-07-06T05:44:49;98197.00;;;22.60
11240;BMP180;5677;48.488;13.436;2022-07-06T05:47:16;98191.00;;;22.60
11240;BMP180;5677;48.488;13.436;2022-07-06T05:50:00;98196.00;;;22.60
11240;BMP180;5677;48.488;13.436;2022-07-06T05:52:42;98199.00;;;22.60
11240;BMP180;5677;48.488;13.436;2022-07-06T05:55:12;98191.00;;;22.60
11240;BMP180;5677;48.488;13.436;2022-07-06T05:57:39;98200.00;;;22.60
11240;BMP180;5677;48.488;13.436;2022-07-06T06:00:08;98206.00;;;22.60
11240;BMP180;5677;48.488;13.436;2022-07-06T06:02:39;98200.00;;;22.60
11240;BMP180;5677;48.488;13.436;2022-07-06T06:05:08;98200.00;;;22.70
11240;BMP180;5677;48.488;13.436;2022-07-06T06:07:36;98202.00;;;22.70
11240;BMP180;5677;48.488;13.436;2022-07-06T06:10:04;98195.00;;;22.70
11240;BMP180;5677;48.488;13.436;2022-07-06T06:12:33;98203.00;;;22.70
11240;BMP180;5677;48.488;13.436;2022-07-06T06:15:00;98200.00;;;22.70
11240;BMP180;5677;48.488;13.436;2022-07-06T06:17:28;98201.00;;;22.70
11240;BMP180;5677;48.488;13.436;2022-07-06T06:19:54;98208.00;;;22.70
11240;BMP180;5677;48.488;13.436;2022-07-06T06:22:21;98204.00;;;22.70
11240;BMP180;5677;48.488;13.436;2022-07-06T06:24:49;98201.00;;;22.70
11240;BMP180;5677;48.488;13.436;2022-07-06T06:27:17;98208.00;;;22.70
11240;BMP180;5677;48.488;13.436;2022-07-06T06:29:45;98211.00;;;22.70
11240;BMP180;5677;48.488;13.436;2022-07-06T06:32:13;98209.00;;;22.70
11240;BMP180;5677;48.488;13.436;2022-07-06T06:34:40;98207.00;;;22.80
11240;BMP180;5677;48.488;13.436;2022-07-06T06:37:07;98210.00;;;22.80
11240;BMP180;5677;48.488;13.436;2022-07-06T06:39:34;98201.00;;;22.80
11240;BMP180;5677;48.488;13.436;2022-07-06T06:42:01;98205.00;;;22.80
11240;BMP180;5677;48.488;13.436;2022-07-06T06:44:28;98207.00;;;22.80
11240;BMP180;5677;48.488;13.436;2022-07-06T06:46:56;98210.00;;;22.80
11240;BMP180;5677;48.488;13.436;2022-07-06T06:49:23;98212.00;;;22.80
11240;BMP180;5677;48.488;13.436;2022-07-06T06:51:50;98215.00;;;22.80
11240;BMP180;5677;48.488;13.436;2022-07-06T06:54:17;98207.00;;;22.80
11240;BMP180;5677;48.488;13.436;2022-07-06T06:56:44;98207.00;;;22.80
11240;BMP180;5677;48.488;13.436;2022-07-06T06:59:11;98207.00;;;22.90
11240;BMP180;5677;48.488;13.436;2022-07-06T07:01:38;98210.00;;;22.90
11240;BMP180;5677;48.488;13.436;2022-07-06T07:04:06;98206.00;;;22.90
11240;BMP180;5677;48.488;13.436;2022-07-06T07:06:33;98223.00;;;22.90
11240;BMP180;5677;48.488;13.436;2022-07-06T07:09:00;98209.00;;;22.90
11240;BMP180;5677;48.488;13.436;2022-07-06T07:11:27;98219.00;;;22.90
11240;BMP180;5677;48.488;13.436;2022-07-06T07:13:54;98222.00;;;22.90
11240;BMP180;5677;48.488;13.436;2022-07-06T07:16:21;98220.00;;;22.90
11240;BMP180;5677;48.488;13.436;2022-07-06T07:18:49;98226.00;;;22.90
11240;BMP180;5677;48.488;13.436;2022-07-06T07:21:18;98220.00;;;23.00
11240;BMP180;5677;48.488;13.436;2022-07-06T07:23:45;98228.00;;;23.00
11240;BMP180;5677;48.488;13.436;2022-07-06T07:26:12;98226.00;;;23.00
11240;BMP180;5677;48.488;13.436;2022-07-06T07:28:39;98224.00;;;23.00
11240;BMP180;5677;48.488;13.436;2022-07-06T07:31:06;98229.00;;;23.00
11240;BMP180;5677;48.488;13.436;2022-07-06T07:33:34;98228.00;;;23.00
11240;BMP180;5677;48.488;13.436;2022-07-06T07:36:01;98219.00;;;23.00
11240;BMP180;5677;48.488;13.436;2022-07-06T07:38:29;98228.00;;;23.00
11240;BMP180;5677;48.488;13.436;2022-07-06T07:40:56;98226.00;;;23.00
11240;BMP180;5677;48.488;13.436;2022-07-06T07:43:23;98225.00;;;23.00
11240;BMP180;5677;48.488;13.436;2022-07-06T07:45:50;98222.00;;;23.00
11240;BMP180;5677;48.488;13.436;2022-07-06T07:48:17;98220.00;;;23.00
11240;BMP180;5677;48.488;13.436;2022-07-06T07:50:44;98222.00;;;23.00
11240;BMP180;5677;48.488;13.436;2022-07-06T07:53:10;98224.00;;;23.10
11240;BMP180;5677;48.488;13.436;2022-07-06T07:55:39;98228.00;;;23.10
11240;BMP180;5677;48.488;13.436;2022-07-06T07:58:06;98222.00;;;23.10
11240;BMP180;5677;48.488;13.436;2022-07-06T08:00:33;98219.00;;;23.10
11240;BMP180;5677;48.488;13.436;2022-07-06T08:03:00;98222.00;;;23.10
11240;BMP180;5677;48.488;13.436;2022-07-06T08:05:27;98226.00;;;23.10
11240;BMP180;5677;48.488;13.436;2022-07-06T08:07:54;98223.00;;;23.10
11240;BMP180;5677;48.488;13.436;2022-07-06T08:10:21;98215.00;;;23.10
11240;BMP180;5677;48.488;13.436;2022-07-06T08:12:49;98223.00;;;23.10
11240;BMP180;5677;48.488;13.436;2022-07-06T08:15:16;98221.00;;;23.10
11240;BMP180;5677;48.488;13.436;2022-07-06T08:17:43;98218.00;;;23.10
11240;BMP180;5677;48.488;13.436;2022-07-06T08:20:11;98219.00;;;23.10
11240;BMP180;5677;48.488;13.436;2022-07-06T08:22:39;98222.00;;;23.10
11240;BMP180;5677;48.488;13.436;2022-07-06T08:25:07;98219.00;;;23.10
11240;BMP180;5677;48.488;13.436;2022-07-06T08:27:36;98228.00;;;23.10
11240;BMP180;5677;48.488;13.436;2022-07-06T08:30:05;98229.00;;;23.10
11240;BMP180;5677;48.488;13.436;2022-07-06T08:32:32;98233.00;;;23.10
11240;BMP180;5677;48.488;13.436;2022-07-06T08:34:59;98223.00;;;23.10
11240;BMP180;5677;48.488;13.436;2022-07-06T08:37:26;98226.00;;;23.10
11240;BMP180;5677;48.488;13.436;2022-07-06T08:39:53;98227.00;;;23.10
11240;BMP180;5677;48.488;13.436;2022-07-06T08:42:21;98223.00;;;23.10
11240;BMP180;5677;48.488;13.436;2022-07-06T08:44:50;98226.00;;;23.10
11240;BMP180;5677;48.488;13.436;2022-07-06T08:47:22;98227.00;;;23.10
11240;BMP180;5677;48.488;13.436;2022-07-06T08:49:50;98227.00;;;23.10
11240;BMP180;5677;48.488;13.436;2022-07-06T08:52:17;98218.00;;;23.10
11240;BMP180;5677;48.488;13.436;2022-07-06T08:54:44;98223.00;;;23.10
11240;BMP180;5677;48.488;13.436;2022-07-06T08:57:12;98227.00;;;23.10
11240;BMP180;5677;48.488;13.436;2022-07-06T08:59:39;98217.00;;;23.20
11240;BMP180;5677;48.488;13.436;2022-07-06T09:02:06;98216.00;;;23.10
11240;BMP180;5677;48.488;13.436;2022-07-06T09:04:36;98218.00;;;23.20
11240;BMP180;5677;48.488;13.436;2022-07-06T09:07:04;98218.00;;;23.20
11240;BMP180;5677;48.488;13.436;2022-07-06T09:09:31;98222.00;;;23.20
11240;BMP180;5677;48.488;13.436;2022-07-06T09:11:58;98223.00;;;23.20
11240;BMP180;5677;48.488;13.436;2022-07-06T09:14:26;98214.00;;;23.20
11240;BMP180;5677;48.488;13.436;2022-07-06T09:17:04;98218.00;;;23.20
11240;BMP180;5677;48.488;13.436;2022-07-06T09:19:34;98216.00;;;23.20
11240;BMP180;5677;48.488;13.436;2022-07-06T09:22:02;98212.00;;;23.20
11240;BMP180;5677;48.488;13.436;2022-07-06T09:24:29;98213.00;;;23.20
11240;BMP180;5677;48.488;13.436;2022-07-06T09:26:58;98211.00;;;23.20
11240;BMP180;5677;48.488;13.436;2022-07-06T09:29:27;98213.00;;;23.20
11240;BMP180;5677;48.488;13.436;2022-07-06T09:32:00;98212.00;;;23.20
11240;BMP180;5677;48.488;13.436;2022-07-06T09:34:42;98206.00;;;23.20
11240;BMP180;5677;48.488;13.436;2022-07-06T09:37:10;98212.00;;;23.20
11240;BMP180;5677;48.488;13.436;2022-07-06T09:39:38;98208.00;;;23.20
11240;BMP180;5677;48.488;13.436;2022-07-06T09:42:07;98204.00;;;23.20
11240;BMP180;5677;48.488;13.436;2022-07-06T09:44:36;98209.00;;;23.20
11240;BMP180;5677;48.488;13.436;2022-07-06T09:47:06;98208.00;;;23.20
11240;BMP180;5677;48.488;13.436;2022-07-06T09:49:34;98209.00;;;23.20
11240;BMP180;5677;48.488;13.436;2022-07-06T09:52:04;98213.00;;;23.20
11240;BMP180;5677;48.488;13.436;2022-07-06T09:54:33;98209.00;;;23.20
11240;BMP180;5677;48.488;13.436;2022-07-06T09:57:01;98203.00;;;23.20
11240;BMP180;5677;48.488;13.436;2022-07-06T09:59:30;98214.00;;;23.20
11240;BMP180;5677;48.488;13.436;2022-07-06T10:01:59;98210.00;;;23.20
11240;BMP180;5677;48.488;13.436;2022-07-06T10:04:28;98208.00;;;23.20
11240;BMP180;5677;48.488;13.436;2022-07-06T10:06:57;98205.00;;;23.20
11240;BMP180;5677;48.488;13.436;2022-07-06T10:09:28;98198.00;;;23.20
11240;BMP180;5677;48.488;13.436;2022-07-06T10:11:57;98193.00;;;23.20
11240;BMP180;5677;48.488;13.436;2022-07-06T10:14:27;98193.00;;;23.20
11240;BMP180;5677;48.488;13.436;2022-07-06T10:16:56;98196.00;;;23.20
11240;BMP180;5677;48.488;13.436;2022-07-06T10:19:25;98195.00;;;23.30
11240;BMP180;5677;48.488;13.436;2022-07-06T10:21:52;98197.00;;;23.30
11240;BMP180;5677;48.488;13.436;2022-07-06T10:24:20;98192.00;;;23.30
11240;BMP180;5677;48.488;13.436;2022-07-06T10:26:49;98195.00;;;23.30
11240;BMP180;5677;48.488;13.436;2022-07-06T10:29:16;98191.00;;;23.30
11240;BMP180;5677;48.488;13.436;2022-07-06T10:31:45;98193.00;;;23.30
11240;BMP180;5677;48.488;13.436;2022-07-06T10:34:15;98201.00;;;23.30
11240;BMP180;5677;48.488;13.436;2022-07-06T10:36:49;98196.00;;;23.30
11240;BMP180;5677;48.488;13.436;2022-07-06T10:39:32;98196.00;;;23.30
11240;BMP180;5677;48.488;13.436;2022-07-06T10:42:44;98197.00;;;23.30
11240;BMP180;5677;48.488;13.436;2022-07-06T10:45:13;98199.00;;;23.30
11240;BMP180;5677;48.488;13.436;2022-07-06T10:47:41;98197.00;;;23.30
11240;BMP180;5677;48.488;13.436;2022-07-06T10:50:10;98205.00;;;23.30
11240;BMP180;5677;48.488;13.436;2022-07-06T10:52:52;98201.00;;;23.30
11240;BMP180;5677;48.488;13.436;2022-07-06T10:55:32;98201.00;;;23.30
11240;BMP180;5677;48.488;13.436;2022-07-06T10:58:01;98195.00;;;23.30
11240;BMP180;5677;48.488;13.436;2022-07-06T11:00:48;98199.00;;;23.30
11240;BMP180;5677;48.488;13.436;2022-07-06T11:03:34;98204.00;;;23.30
11240;BMP180;5677;48.488;13.436;2022-07-06T11:06:05;98197.00;;;23.30
11240;BMP180;5677;48.488;13.436;2022-07-06T11:08:53;98188.00;;;23.30
11240;BMP180;5677;48.488;13.436;2022-07-06T11:11:24;98192.00;;;23.30
11240;BMP180;5677;48.488;13.436;2022-07-06T11:13:59;98191.00;;;23.30
11240;BMP180;5677;48.488;13.436;2022-07-06T11:16:30;98198.00;;;23.30
11240;BMP180;5677;48.488;13.436;2022-07-06T11:19:08;98187.00;;;23.30
11240;BMP180;5677;48.488;13.436;2022-07-06T11:21:45;98189.00;;;23.30
11240;BMP180;5677;48.488;13.436;2022-07-06T11:24:15;98186.00;;;23.30
11240;BMP180;5677;48.488;13.436;2022-07-06T11:26:44;98185.00;;;23.40
11240;BMP180;5677;48.488;13.436;2022-07-06T11:29:15;98179.00;;;23.40
11240;BMP180;5677;48.488;13.436;2022-07-06T11:31:45;98179.00;;;23.40
11240;BMP180;5677;48.488;13.436;2022-07-06T11:34:17;98173.00;;;23.40
11240;BMP180;5677;48.488;13.436;2022-07-06T11:36:44;98182.00;;;23.40
11240;BMP180;5677;48.488;13.436;2022-07-06T11:39:12;98180.00;;;23.40
11240;BMP180;5677;48.488;13.436;2022-07-06T11:41:40;98182.00;;;23.40
11240;BMP180;5677;48.488;13.436;2022-07-06T11:44:07;98182.00;;;23.40
11240;BMP180;5677;48.488;13.436;2022-07-06T11:46:36;98177.00;;;23.40
11240;BMP180;5677;48.488;13.436;2022-07-06T11:49:05;98186.00;;;23.40
11240;BMP180;5677;48.488;13.436;2022-07-06T11:51:35;98184.00;;;23.40
11240;BMP180;5677;48.488;13.436;2022-07-06T11:54:09;98180.00;;;23.40
11240;BMP180;5677;48.488;13.436;2022-07-06T11:56:37;98176.00;;;23.40
11240;BMP180;5677;48.488;13.436;2022-07-06T11:59:11;98176.00;;;23.40
11240;BMP180;5677;48.488;13.436;2022-07-06T12:01:39;98172.00;;;23.40
11240;BMP180;5677;48.488;13.436;2022-07-06T12:04:10;98165.00;;;23.40
11240;BMP180;5677;48.488;13.436;2022-07-06T12:06:37;98164.00;;;23.40
11240;BMP180;5677;48.488;13.436;2022-07-06T12:09:04;98161.00;;;23.40
11240;BMP180;5677;48.488;13.436;2022-07-06T12:11:34;98165.00;;;23.40
11240;BMP180;5677;48.488;13.436;2022-07-06T12:14:03;98157.00;;;23.40
11240;BMP180;5677;48.488;13.436;2022-07-06T12:16:40;98154.00;;;23.40
11240;BMP180;5677;48.488;13.436;2022-07-06T12:19:07;98152.00;;;23.40
11240;BMP180;5677;48.488;13.436;2022-07-06T12:21:42;98150.00;;;23.40
11240;BMP180;5677;48.488;13.436;2022-07-06T12:24:18;98142.00;;;23.40
11240;BMP180;5677;48.488;13.436;2022-07-06T12:26:46;98149.00;;;23.40
11240;BMP180;5677;48.488;13.436;2022-07-06T12:29:14;98149.00;;;23.40
11240;BMP180;5677;48.488;13.436;2022-07-06T12:31:48;98145.00;;;23.40
11240;BMP180;5677;48.488;13.436;2022-07-06T12:34:18;98151.00;;;23.40
11240;BMP180;5677;48.488;13.436;2022-07-06T12:36:47;98153.00;;;23.40
11240;BMP180;5677;48.488;13.436;2022-07-06T12:39:19;98142.00;;;23.40
11240;BMP180;5677;48.488;13.436;2022-07-06T12:41:49;98143.00;;;23.40
11240;BMP180;5677;48.488;13.436;2022-07-06T12:44:18;98151.00;;;23.40
11240;BMP180;5677;48.488;13.436;2022-07-06T12:46:47;98150.00;;;23.40
11240;BMP180;5677;48.488;13.436;2022-07-06T12:49:17;98145.00;;;23.40
11240;BMP180;5677;48.488;13.436;2022-07-06T12:51:53;98154.00;;;23.40
11240;BMP180;5677;48.488;13.436;2022-07-06T12:54:21;98153.00;;;23.40
11240;BMP180;5677;48.488;13.436;2022-07-06T12:57:08;98147.00;;;23.40
11240;BMP180;5677;48.488;13.436;2022-07-06T12:59:42;98150.00;;;23.40
11240;BMP180;5677;48.488;13.436;2022-07-06T13:02:22;98152.00;;;23.40
11240;BMP180;5677;48.488;13.436;2022-07-06T13:04:58;98151.00;;;23.40
11240;BMP180;5677;48.488;13.436;2022-07-06T13:07:27;98149.00;;;23.40
11240;BMP180;5677;48.488;13.436;2022-07-06T13:09:55;98144.00;;;23.40
11240;BMP180;5677;48.488;13.436;2022-07-06T13:12:22;98147.00;;;23.40
11240;BMP180;5677;48.488;13.436;2022-07-06T13:14:50;98142.00;;;23.40
11240;BMP180;5677;48.488;13.436;2022-07-06T13:17:18;98142.00;;;23.40
11240;BMP180;5677;48.488;13.436;2022-07-06T13:19:45;98139.00;;;23.40
11240;BMP180;5677;48.488;13.436;2022-07-06T13:22:13;98135.00;;;23.40
11240;BMP180;5677;48.488;13.436;2022-07-06T13:24:41;98133.00;;;23.40
11240;BMP180;5677;48.488;13.436;2022-07-06T13:27:08;98127.00;;;23.40
11240;BMP180;5677;48.488;13.436;2022-07-06T13:29:35;98132.00;;;23.40
11240;BMP180;5677;48.488;13.436;2022-07-06T13:32:03;98134.00;;;23.40
11240;BMP180;5677;48.488;13.436;2022-07-06T13:34:32;98125.00;;;23.40
11240;BMP180;5677;48.488;13.436;2022-07-06T13:37:00;98121.00;;;23.40
11240;BMP180;5677;48.488;13.436;2022-07-06T13:39:27;98125.00;;;23.40
11240;BMP180;5677;48.488;13.436;2022-07-06T13:41:54;98128.00;;;23.40
11240;BMP180;5677;48.488;13.436;2022-07-06T13:44:22;98135.00;;;23.40
11240;BMP180;5677;48.488;13.436;2022-07-06T13:46:50;98137.00;;;23.40
11240;BMP180;5677;48.488;13.436;2022-07-06T13:49:17;98134.00;;;23.40
11240;BMP180;5677;48.488;13.436;2022-07-06T13:51:46;98134.00;;;23.40
11240;BMP180;5677;48.488;13.436;2022-07-06T13:54:13;98135.00;;;23.40
11240;BMP180;5677;48.488;13.436;2022-07-06T13:56:40;98131.00;;;23.40
11240;BMP180;5677;48.488;13.436;2022-07-06T13:59:07;98135.00;;;23.40
11240;BMP180;5677;48.488;13.436;2022-07-06T14:01:34;98126.00;;;23.40
11240;BMP180;5677;48.488;13.436;2022-07-06T14:04:01;98128.00;;;23.40
11240;BMP180;5677;48.488;13.436;2022-07-06T14:06:28;98123.00;;;23.40
11240;BMP180;5677;48.488;13.436;2022-07-06T14:08:56;98124.00;;;23.40
11240;BMP180;5677;48.488;13.436;2022-07-06T14:11:23;98125.00;;;23.40
11240;BMP180;5677;48.488;13.436;2022-07-06T14:13:50;98120.00;;;23.40
11240;BMP180;5677;48.488;13.436;2022-07-06T14:16:17;98118.00;;;23.40